sensor_id;sensor_type;location;lat;lon;timestamp;P1;durP1;ratioP1;P2;durP2;ratioP2
72939;SDS011;61094;51.154;13.570;2023-03-14T00:02:05;2.00;;;0.60;;
72939;SDS011;61094;51.154;13.570;2023-03-14T00:21:39;3.03;;;1.23;;
72939;SDS011;61094;51.154;13.570;2023-03-14T00:26:13;2.38;;;0.65;;
72939;SDS011;61094;51.154;13.570;2023-03-14T00:28:16;2.65;;;0.80;;
72939;SDS011;61094;51.154;13.570;2023-03-14T00:30:17;2.78;;;0.80;;
72939;SDS011;61094;51.154;13.570;2023-03-14T00:32:20;2.17;;;0.70;;
72939;SDS011;61094;51.154;13.570;2023-03-14T00:34:22;2.92;;;0.77;;
72939;SDS011;61094;51.154;13.570;2023-03-14T00:36:23;1.85;;;0.70;;
72939;SDS011;61094;51.154;13.570;2023-03-14T00:38:27;2.05;;;0.60;;
72939;SDS011;61094;51.154;13.570;2023-03-14T00:40:29;2.67;;;0.80;;
72939;SDS011;61094;51.154;13.570;2023-03-14T00:42:30;2.20;;;0.80;;
72939;SDS011;61094;51.154;13.570;2023-03-14T00:44:32;1.90;;;0.70;;
72939;SDS011;61094;51.154;13.570;2023-03-14T00:46:34;2.95;;;1.05;;
72939;SDS011;61094;51.154;13.570;2023-03-14T00:48:36;2.85;;;0.85;;
72939;SDS011;61094;51.154;13.570;2023-03-14T00:50:37;2.40;;;0.68;;
72939;SDS011;61094;51.154;13.570;2023-03-14T00:52:39;3.70;;;1.10;;
72939;SDS011;61094;51.154;13.570;2023-03-14T00:54:42;3.95;;;1.05;;
72939;SDS011;61094;51.154;13.570;2023-03-14T00:56:44;3.55;;;0.85;;
72939;SDS011;61094;51.154;13.570;2023-03-14T00:58:46;4.72;;;1.17;;
72939;SDS011;61094;51.154;13.570;2023-03-14T01:00:47;4.35;;;1.00;;
72939;SDS011;61094;51.154;13.570;2023-03-14T01:02:49;3.35;;;1.08;;
72939;SDS011;61094;51.154;13.570;2023-03-14T01:04:50;3.60;;;1.02;;
72939;SDS011;61094;51.154;13.570;2023-03-14T01:06:52;2.35;;;0.95;;
72939;SDS011;61094;51.154;13.570;2023-03-14T01:08:54;2.53;;;0.93;;
72939;SDS011;61094;51.154;13.570;2023-03-14T01:10:58;2.40;;;0.80;;
72939;SDS011;61094;51.154;13.570;2023-03-14T01:13:00;4.65;;;1.25;;
72939;SDS011;61094;51.154;13.570;2023-03-14T01:15:03;4.47;;;1.40;;
72939;SDS011;61094;51.154;13.570;2023-03-14T01:17:06;2.10;;;0.85;;
72939;SDS011;61094;51.154;13.570;2023-03-14T01:19:08;3.05;;;1.00;;
72939;SDS011;61094;51.154;13.570;2023-03-14T01:21:11;2.80;;;0.95;;
72939;SDS011;61094;51.154;13.570;2023-03-14T01:23:14;3.60;;;1.02;;
72939;SDS011;61094;51.154;13.570;2023-03-14T01:25:16;3.88;;;1.02;;
72939;SDS011;61094;51.154;13.570;2023-03-14T01:27:20;2.45;;;0.90;;
72939;SDS011;61094;51.154;13.570;2023-03-14T01:29:22;3.92;;;0.93;;
72939;SDS011;61094;51.154;13.570;2023-03-14T01:31:24;3.85;;;0.88;;
72939;SDS011;61094;51.154;13.570;2023-03-14T01:33:27;3.03;;;0.82;;
72939;SDS011;61094;51.154;13.570;2023-03-14T01:35:28;2.08;;;0.82;;
72939;SDS011;61094;51.154;13.570;2023-03-14T01:37:31;3.33;;;0.90;;
72939;SDS011;61094;51.154;13.570;2023-03-14T01:39:33;3.22;;;0.85;;
72939;SDS011;61094;51.154;13.570;2023-03-14T01:41:35;2.25;;;0.85;;
72939;SDS011;61094;51.154;13.570;2023-03-14T01:43:38;3.92;;;1.30;;
72939;SDS011;61094;51.154;13.570;2023-03-14T01:45:59;3.17;;;0.95;;
72939;SDS011;61094;51.154;13.570;2023-03-14T01:48:17;2.92;;;0.90;;
72939;SDS011;61094;51.154;13.570;2023-03-14T01:50:18;2.60;;;0.90;;
72939;SDS011;61094;51.154;13.570;2023-03-14T01:52:21;3.35;;;1.10;;
72939;SDS011;61094;51.154;13.570;2023-03-14T01:54:27;3.08;;;0.73;;
72939;SDS011;61094;51.154;13.570;2023-03-14T01:56:32;2.90;;;0.77;;
72939;SDS011;61094;51.154;13.570;2023-03-14T01:58:34;1.80;;;0.70;;
72939;SDS011;61094;51.154;13.570;2023-03-14T02:00:38;4.63;;;0.90;;
72939;SDS011;61094;51.154;13.570;2023-03-14T02:02:40;3.03;;;0.80;;
72939;SDS011;61094;51.154;13.570;2023-03-14T02:04:45;2.25;;;0.65;;
72939;SDS011;61094;51.154;13.570;2023-03-14T02:06:51;2.13;;;0.80;;
72939;SDS011;61094;51.154;13.570;2023-03-14T02:11:06;2.92;;;0.88;;
72939;SDS011;61094;51.154;13.570;2023-03-14T02:13:24;2.75;;;1.00;;
72939;SDS011;61094;51.154;13.570;2023-03-14T02:15:50;2.10;;;0.70;;
72939;SDS011;61094;51.154;13.570;2023-03-14T02:18:16;1.52;;;0.70;;
72939;SDS011;61094;51.154;13.570;2023-03-14T02:20:30;2.47;;;0.70;;
72939;SDS011;61094;51.154;13.570;2023-03-14T02:22:40;2.13;;;0.82;;
72939;SDS011;61094;51.154;13.570;2023-03-14T02:24:46;2.05;;;0.60;;
72939;SDS011;61094;51.154;13.570;2023-03-14T02:27:04;2.50;;;0.55;;
72939;SDS011;61094;51.154;13.570;2023-03-14T02:29:09;1.25;;;0.30;;
72939;SDS011;61094;51.154;13.570;2023-03-14T02:31:11;1.63;;;0.40;;
72939;SDS011;61094;51.154;13.570;2023-03-14T02:33:13;1.85;;;0.63;;
72939;SDS011;61094;51.154;13.570;2023-03-14T02:35:18;1.90;;;0.52;;
72939;SDS011;61094;51.154;13.570;2023-03-14T02:37:23;1.77;;;0.60;;
72939;SDS011;61094;51.154;13.570;2023-03-14T02:39:31;1.27;;;0.35;;
72939;SDS011;61094;51.154;13.570;2023-03-14T02:41:37;0.60;;;0.10;;
72939;SDS011;61094;51.154;13.570;2023-03-14T02:43:42;0.63;;;0.32;;
72939;SDS011;61094;51.154;13.570;2023-03-14T02:45:46;0.90;;;0.40;;
72939;SDS011;61094;51.154;13.570;2023-03-14T02:47:52;1.13;;;0.30;;
72939;SDS011;61094;51.154;13.570;2023-03-14T02:50:01;1.08;;;0.20;;
72939;SDS011;61094;51.154;13.570;2023-03-14T02:52:05;0.77;;;0.20;;
72939;SDS011;61094;51.154;13.570;2023-03-14T02:54:07;1.00;;;0.28;;
72939;SDS011;61094;51.154;13.570;2023-03-14T02:56:09;0.32;;;0.10;;
72939;SDS011;61094;51.154;13.570;2023-03-14T02:58:11;0.85;;;0.30;;
72939;SDS011;61094;51.154;13.570;2023-03-14T03:00:16;1.10;;;0.28;;
72939;SDS011;61094;51.154;13.570;2023-03-14T03:02:18;1.33;;;0.45;;
72939;SDS011;61094;51.154;13.570;2023-03-14T03:04:20;2.05;;;0.40;;
72939;SDS011;61094;51.154;13.570;2023-03-14T03:06:22;1.25;;;0.47;;
72939;SDS011;61094;51.154;13.570;2023-03-14T03:08:24;0.47;;;0.17;;
72939;SDS011;61094;51.154;13.570;2023-03-14T03:10:28;0.10;;;0.00;;
72939;SDS011;61094;51.154;13.570;2023-03-14T03:12:30;0.63;;;0.20;;
72939;SDS011;61094;51.154;13.570;2023-03-14T03:14:32;0.32;;;0.10;;
72939;SDS011;61094;51.154;13.570;2023-03-14T03:16:38;1.27;;;0.30;;
72939;SDS011;61094;51.154;13.570;2023-03-14T03:18:40;0.10;;;0.05;;
72939;SDS011;61094;51.154;13.570;2023-03-14T03:20:41;0.38;;;0.10;;
72939;SDS011;61094;51.154;13.570;2023-03-14T03:22:43;0.28;;;0.10;;
72939;SDS011;61094;51.154;13.570;2023-03-14T03:24:44;0.68;;;0.20;;
72939;SDS011;61094;51.154;13.570;2023-03-14T03:26:46;0.38;;;0.05;;
72939;SDS011;61094;51.154;13.570;2023-03-14T03:28:50;0.63;;;0.20;;
72939;SDS011;61094;51.154;13.570;2023-03-14T03:30:51;0.73;;;0.22;;
72939;SDS011;61094;51.154;13.570;2023-03-14T03:32:54;0.70;;;0.20;;
72939;SDS011;61094;51.154;13.570;2023-03-14T03:34:56;0.45;;;0.10;;
72939;SDS011;61094;51.154;13.570;2023-03-14T03:36:58;1.00;;;0.50;;
72939;SDS011;61094;51.154;13.570;2023-03-14T03:39:02;0.65;;;0.20;;
72939;SDS011;61094;51.154;13.570;2023-03-14T03:41:05;0.77;;;0.13;;
72939;SDS011;61094;51.154;13.570;2023-03-14T03:43:07;0.10;;;0.05;;
72939;SDS011;61094;51.154;13.570;2023-03-14T03:45:11;0.30;;;0.08;;
72939;SDS011;61094;51.154;13.570;2023-03-14T03:49:27;0.40;;;0.10;;
72939;SDS011;61094;51.154;13.570;2023-03-14T03:51:29;2.00;;;0.20;;
72939;SDS011;61094;51.154;13.570;2023-03-14T03:53:31;0.85;;;0.13;;
72939;SDS011;61094;51.154;13.570;2023-03-14T03:55:34;0.32;;;0.00;;
72939;SDS011;61094;51.154;13.570;2023-03-14T03:57:35;0.95;;;0.20;;
72939;SDS011;61094;51.154;13.570;2023-03-14T03:59:37;1.17;;;0.30;;
72939;SDS011;61094;51.154;13.570;2023-03-14T04:01:41;0.30;;;0.00;;
72939;SDS011;61094;51.154;13.570;2023-03-14T04:03:43;2.63;;;0.60;;
72939;SDS011;61094;51.154;13.570;2023-03-14T04:05:46;2.72;;;0.17;;
72939;SDS011;61094;51.154;13.570;2023-03-14T04:07:58;0.80;;;0.30;;
72939;SDS011;61094;51.154;13.570;2023-03-14T04:10:02;0.25;;;0.08;;
72939;SDS011;61094;51.154;13.570;2023-03-14T04:12:08;0.30;;;0.15;;
72939;SDS011;61094;51.154;13.570;2023-03-14T04:14:31;2.97;;;0.93;;
72939;SDS011;61094;51.154;13.570;2023-03-14T04:16:41;0.20;;;0.13;;
72939;SDS011;61094;51.154;13.570;2023-03-14T04:18:46;0.45;;;0.10;;
72939;SDS011;61094;51.154;13.570;2023-03-14T04:20:52;0.65;;;0.30;;
72939;SDS011;61094;51.154;13.570;2023-03-14T04:22:55;0.25;;;0.05;;
72939;SDS011;61094;51.154;13.570;2023-03-14T04:24:57;1.05;;;0.40;;
72939;SDS011;61094;51.154;13.570;2023-03-14T04:26:59;1.63;;;0.30;;
72939;SDS011;61094;51.154;13.570;2023-03-14T04:29:01;0.82;;;0.13;;
72939;SDS011;61094;51.154;13.570;2023-03-14T04:31:06;1.02;;;0.32;;
72939;SDS011;61094;51.154;13.570;2023-03-14T04:33:08;0.73;;;0.10;;
72939;SDS011;61094;51.154;13.570;2023-03-14T04:35:17;0.80;;;0.17;;
72939;SDS011;61094;51.154;13.570;2023-03-14T04:37:20;0.38;;;0.13;;
72939;SDS011;61094;51.154;13.570;2023-03-14T04:39:21;1.92;;;0.28;;
72939;SDS011;61094;51.154;13.570;2023-03-14T04:41:39;1.40;;;0.40;;
72939;SDS011;61094;51.154;13.570;2023-03-14T04:43:43;2.50;;;0.52;;
72939;SDS011;61094;51.154;13.570;2023-03-14T04:45:46;0.85;;;0.30;;
72939;SDS011;61094;51.154;13.570;2023-03-14T04:47:48;0.05;;;0.05;;
72939;SDS011;61094;51.154;13.570;2023-03-14T04:49:52;2.13;;;0.30;;
72939;SDS011;61094;51.154;13.570;2023-03-14T04:51:56;0.88;;;0.25;;
72939;SDS011;61094;51.154;13.570;2023-03-14T04:54:02;2.05;;;0.15;;
72939;SDS011;61094;51.154;13.570;2023-03-14T04:56:04;0.68;;;0.20;;
72939;SDS011;61094;51.154;13.570;2023-03-14T04:58:11;0.10;;;0.10;;
72939;SDS011;61094;51.154;13.570;2023-03-14T05:00:14;2.78;;;0.57;;
72939;SDS011;61094;51.154;13.570;2023-03-14T05:02:41;0.82;;;0.20;;
72939;SDS011;61094;51.154;13.570;2023-03-14T05:04:52;1.08;;;0.32;;
72939;SDS011;61094;51.154;13.570;2023-03-14T05:07:12;2.58;;;0.45;;
72939;SDS011;61094;51.154;13.570;2023-03-14T05:09:42;4.18;;;0.80;;
72939;SDS011;61094;51.154;13.570;2023-03-14T05:11:59;0.57;;;0.20;;
72939;SDS011;61094;51.154;13.570;2023-03-14T05:14:10;5.75;;;0.57;;
72939;SDS011;61094;51.154;13.570;2023-03-14T05:16:41;1.08;;;0.28;;
72939;SDS011;61094;51.154;13.570;2023-03-14T05:19:01;1.38;;;0.40;;
72939;SDS011;61094;51.154;13.570;2023-03-14T05:21:19;2.40;;;0.30;;
72939;SDS011;61094;51.154;13.570;2023-03-14T05:23:44;0.80;;;0.30;;
72939;SDS011;61094;51.154;13.570;2023-03-14T05:26:14;2.15;;;0.30;;
72939;SDS011;61094;51.154;13.570;2023-03-14T05:28:35;0.77;;;0.20;;
72939;SDS011;61094;51.154;13.570;2023-03-14T05:30:46;2.20;;;0.45;;
72939;SDS011;61094;51.154;13.570;2023-03-14T05:33:16;2.35;;;0.50;;
72939;SDS011;61094;51.154;13.570;2023-03-14T05:35:30;3.17;;;0.50;;
72939;SDS011;61094;51.154;13.570;2023-03-14T05:37:45;4.72;;;1.25;;
72939;SDS011;61094;51.154;13.570;2023-03-14T05:40:26;1.65;;;0.43;;
72939;SDS011;61094;51.154;13.570;2023-03-14T05:42:58;2.00;;;0.77;;
72939;SDS011;61094;51.154;13.570;2023-03-14T05:45:18;1.83;;;0.40;;
72939;SDS011;61094;51.154;13.570;2023-03-14T05:47:23;3.15;;;0.50;;
72939;SDS011;61094;51.154;13.570;2023-03-14T05:49:38;4.78;;;0.93;;
72939;SDS011;61094;51.154;13.570;2023-03-14T05:51:55;1.73;;;0.30;;
72939;SDS011;61094;51.154;13.570;2023-03-14T05:54:15;1.00;;;0.20;;
72939;SDS011;61094;51.154;13.570;2023-03-14T05:56:34;2.13;;;0.30;;
72939;SDS011;61094;51.154;13.570;2023-03-14T05:58:46;2.03;;;0.40;;
72939;SDS011;61094;51.154;13.570;2023-03-14T06:01:20;2.50;;;0.35;;
72939;SDS011;61094;51.154;13.570;2023-03-14T06:03:48;3.13;;;0.65;;
72939;SDS011;61094;51.154;13.570;2023-03-14T06:05:50;5.43;;;1.63;;
72939;SDS011;61094;51.154;13.570;2023-03-14T06:07:52;2.63;;;0.88;;
72939;SDS011;61094;51.154;13.570;2023-03-14T06:09:55;3.65;;;1.20;;
72939;SDS011;61094;51.154;13.570;2023-03-14T06:11:57;1.42;;;0.50;;
72939;SDS011;61094;51.154;13.570;2023-03-14T06:14:00;1.50;;;0.57;;
72939;SDS011;61094;51.154;13.570;2023-03-14T06:16:02;2.63;;;0.50;;
72939;SDS011;61094;51.154;13.570;2023-03-14T06:18:04;1.58;;;0.50;;
72939;SDS011;61094;51.154;13.570;2023-03-14T06:20:08;1.08;;;0.30;;
72939;SDS011;61094;51.154;13.570;2023-03-14T06:22:11;1.63;;;0.68;;
72939;SDS011;61094;51.154;13.570;2023-03-14T06:26:24;4.22;;;0.50;;
72939;SDS011;61094;51.154;13.570;2023-03-14T06:28:26;1.50;;;0.60;;
72939;SDS011;61094;51.154;13.570;2023-03-14T06:30:33;4.93;;;0.73;;
72939;SDS011;61094;51.154;13.570;2023-03-14T06:32:35;3.10;;;0.73;;
72939;SDS011;61094;51.154;13.570;2023-03-14T06:34:41;3.35;;;0.63;;
72939;SDS011;61094;51.154;13.570;2023-03-14T06:36:43;4.75;;;0.85;;
72939;SDS011;61094;51.154;13.570;2023-03-14T06:38:45;2.25;;;0.57;;
72939;SDS011;61094;51.154;13.570;2023-03-14T06:40:47;3.08;;;0.93;;
72939;SDS011;61094;51.154;13.570;2023-03-14T06:42:54;2.00;;;0.50;;
72939;SDS011;61094;51.154;13.570;2023-03-14T06:44:57;2.08;;;0.57;;
72939;SDS011;61094;51.154;13.570;2023-03-14T06:47:01;2.30;;;0.60;;
72939;SDS011;61094;51.154;13.570;2023-03-14T06:49:03;2.72;;;0.55;;
72939;SDS011;61094;51.154;13.570;2023-03-14T06:51:06;1.38;;;0.35;;
72939;SDS011;61094;51.154;13.570;2023-03-14T06:53:08;4.88;;;0.65;;
72939;SDS011;61094;51.154;13.570;2023-03-14T06:55:30;1.10;;;0.40;;
72939;SDS011;61094;51.154;13.570;2023-03-14T06:57:32;2.65;;;0.52;;
72939;SDS011;61094;51.154;13.570;2023-03-14T06:59:34;4.60;;;1.05;;
72939;SDS011;61094;51.154;13.570;2023-03-14T07:01:36;1.98;;;0.93;;
72939;SDS011;61094;51.154;13.570;2023-03-14T07:03:42;1.70;;;0.43;;
72939;SDS011;61094;51.154;13.570;2023-03-14T07:05:44;3.75;;;0.90;;
72939;SDS011;61094;51.154;13.570;2023-03-14T07:07:46;6.82;;;1.00;;
72939;SDS011;61094;51.154;13.570;2023-03-14T07:09:48;2.97;;;0.75;;
72939;SDS011;61094;51.154;13.570;2023-03-14T07:11:49;1.40;;;0.40;;
72939;SDS011;61094;51.154;13.570;2023-03-14T07:13:52;4.00;;;0.50;;
72939;SDS011;61094;51.154;13.570;2023-03-14T07:15:54;2.15;;;0.65;;
72939;SDS011;61094;51.154;13.570;2023-03-14T07:17:57;3.90;;;0.80;;
72939;SDS011;61094;51.154;13.570;2023-03-14T07:20:00;5.00;;;0.60;;
72939;SDS011;61094;51.154;13.570;2023-03-14T07:22:04;2.97;;;0.50;;
72939;SDS011;61094;51.154;13.570;2023-03-14T07:24:06;3.03;;;0.60;;
72939;SDS011;61094;51.154;13.570;2023-03-14T07:26:08;3.92;;;0.68;;
72939;SDS011;61094;51.154;13.570;2023-03-14T07:28:14;2.58;;;0.70;;
72939;SDS011;61094;51.154;13.570;2023-03-14T07:30:17;4.03;;;0.55;;
72939;SDS011;61094;51.154;13.570;2023-03-14T07:32:19;1.10;;;0.50;;
72939;SDS011;61094;51.154;13.570;2023-03-14T07:34:22;0.68;;;0.20;;
72939;SDS011;61094;51.154;13.570;2023-03-14T07:36:26;2.05;;;0.40;;
72939;SDS011;61094;51.154;13.570;2023-03-14T07:38:28;1.80;;;0.40;;
72939;SDS011;61094;51.154;13.570;2023-03-14T07:40:59;3.33;;;0.60;;
72939;SDS011;61094;51.154;13.570;2023-03-14T07:43:03;3.17;;;0.60;;
72939;SDS011;61094;51.154;13.570;2023-03-14T07:45:19;1.15;;;0.32;;
72939;SDS011;61094;51.154;13.570;2023-03-14T07:47:21;5.05;;;0.52;;
72939;SDS011;61094;51.154;13.570;2023-03-14T07:49:22;1.77;;;0.47;;
72939;SDS011;61094;51.154;13.570;2023-03-14T07:51:26;0.95;;;0.22;;
72939;SDS011;61094;51.154;13.570;2023-03-14T07:53:27;1.75;;;0.50;;
72939;SDS011;61094;51.154;13.570;2023-03-14T07:55:29;1.42;;;0.15;;
72939;SDS011;61094;51.154;13.570;2023-03-14T07:57:31;1.60;;;0.52;;
72939;SDS011;61094;51.154;13.570;2023-03-14T07:59:33;0.90;;;0.30;;
72939;SDS011;61094;51.154;13.570;2023-03-14T08:01:34;1.88;;;0.22;;
72939;SDS011;61094;51.154;13.570;2023-03-14T08:03:36;3.83;;;0.65;;
72939;SDS011;61094;51.154;13.570;2023-03-14T08:05:38;0.68;;;0.22;;
72939;SDS011;61094;51.154;13.570;2023-03-14T08:07:42;5.20;;;0.80;;
72939;SDS011;61094;51.154;13.570;2023-03-14T08:09:44;1.60;;;0.28;;
72939;SDS011;61094;51.154;13.570;2023-03-14T08:11:45;2.65;;;0.35;;
72939;SDS011;61094;51.154;13.570;2023-03-14T08:13:47;3.13;;;0.85;;
72939;SDS011;61094;51.154;13.570;2023-03-14T08:15:50;1.48;;;0.47;;
72939;SDS011;61094;51.154;13.570;2023-03-14T08:17:52;2.75;;;0.50;;
72939;SDS011;61094;51.154;13.570;2023-03-14T08:19:54;3.00;;;0.43;;
72939;SDS011;61094;51.154;13.570;2023-03-14T08:21:55;1.42;;;0.40;;
72939;SDS011;61094;51.154;13.570;2023-03-14T08:23:58;1.20;;;0.40;;
72939;SDS011;61094;51.154;13.570;2023-03-14T08:26:00;2.72;;;0.73;;
72939;SDS011;61094;51.154;13.570;2023-03-14T08:28:02;2.67;;;0.43;;
72939;SDS011;61094;51.154;13.570;2023-03-14T08:30:05;1.52;;;0.30;;
72939;SDS011;61094;51.154;13.570;2023-03-14T08:32:08;0.75;;;0.30;;
72939;SDS011;61094;51.154;13.570;2023-03-14T08:34:10;1.30;;;0.47;;
72939;SDS011;61094;51.154;13.570;2023-03-14T08:36:12;1.98;;;0.50;;
72939;SDS011;61094;51.154;13.570;2023-03-14T08:38:14;0.38;;;0.10;;
72939;SDS011;61094;51.154;13.570;2023-03-14T08:40:17;4.55;;;1.40;;
72939;SDS011;61094;51.154;13.570;2023-03-14T08:42:20;4.82;;;0.80;;
72939;SDS011;61094;51.154;13.570;2023-03-14T08:44:21;1.95;;;0.38;;
72939;SDS011;61094;51.154;13.570;2023-03-14T08:46:23;1.63;;;0.17;;
72939;SDS011;61094;51.154;13.570;2023-03-14T08:48:25;2.38;;;0.50;;
72939;SDS011;61094;51.154;13.570;2023-03-14T08:50:27;1.95;;;0.50;;
72939;SDS011;61094;51.154;13.570;2023-03-14T08:52:29;2.60;;;0.30;;
72939;SDS011;61094;51.154;13.570;2023-03-14T08:54:31;3.85;;;0.65;;
72939;SDS011;61094;51.154;13.570;2023-03-14T08:56:34;2.33;;;0.68;;
72939;SDS011;61094;51.154;13.570;2023-03-14T08:58:37;1.80;;;0.47;;
72939;SDS011;61094;51.154;13.570;2023-03-14T09:00:39;2.08;;;0.22;;
72939;SDS011;61094;51.154;13.570;2023-03-14T09:02:41;1.65;;;0.32;;
72939;SDS011;61094;51.154;13.570;2023-03-14T09:04:44;2.25;;;0.45;;
72939;SDS011;61094;51.154;13.570;2023-03-14T09:06:45;3.90;;;0.60;;
72939;SDS011;61094;51.154;13.570;2023-03-14T09:08:47;2.80;;;0.40;;
72939;SDS011;61094;51.154;13.570;2023-03-14T09:10:49;1.02;;;0.20;;
72939;SDS011;61094;51.154;13.570;2023-03-14T09:12:52;1.63;;;0.40;;
72939;SDS011;61094;51.154;13.570;2023-03-14T09:14:54;1.02;;;0.20;;
72939;SDS011;61094;51.154;13.570;2023-03-14T09:16:56;0.85;;;0.28;;
72939;SDS011;61094;51.154;13.570;2023-03-14T09:18:58;1.90;;;0.32;;
72939;SDS011;61094;51.154;13.570;2023-03-14T09:21:00;4.57;;;0.60;;
72939;SDS011;61094;51.154;13.570;2023-03-14T09:23:02;1.73;;;0.38;;
72939;SDS011;61094;51.154;13.570;2023-03-14T09:25:04;2.85;;;0.40;;
72939;SDS011;61094;51.154;13.570;2023-03-14T09:27:06;0.70;;;0.22;;
72939;SDS011;61094;51.154;13.570;2023-03-14T09:29:09;5.03;;;0.52;;
72939;SDS011;61094;51.154;13.570;2023-03-14T09:31:11;2.33;;;0.55;;
72939;SDS011;61094;51.154;13.570;2023-03-14T09:33:14;1.60;;;0.25;;
72939;SDS011;61094;51.154;13.570;2023-03-14T09:35:16;1.40;;;0.32;;
72939;SDS011;61094;51.154;13.570;2023-03-14T09:37:18;3.33;;;0.45;;
72939;SDS011;61094;51.154;13.570;2023-03-14T09:39:21;1.10;;;0.25;;
72939;SDS011;61094;51.154;13.570;2023-03-14T09:41:23;2.72;;;0.70;;
72939;SDS011;61094;51.154;13.570;2023-03-14T09:43:27;2.92;;;0.45;;
72939;SDS011;61094;51.154;13.570;2023-03-14T09:45:33;3.20;;;0.50;;
72939;SDS011;61094;51.154;13.570;2023-03-14T09:47:36;0.73;;;0.35;;
72939;SDS011;61094;51.154;13.570;2023-03-14T09:49:39;0.90;;;0.28;;
72939;SDS011;61094;51.154;13.570;2023-03-14T09:51:42;3.22;;;0.52;;
72939;SDS011;61094;51.154;13.570;2023-03-14T09:53:46;2.13;;;0.55;;
72939;SDS011;61094;51.154;13.570;2023-03-14T09:55:49;7.05;;;0.70;;
72939;SDS011;61094;51.154;13.570;2023-03-14T09:57:54;2.47;;;0.80;;
72939;SDS011;61094;51.154;13.570;2023-03-14T09:59:58;1.45;;;0.45;;
72939;SDS011;61094;51.154;13.570;2023-03-14T10:02:14;2.38;;;0.30;;
72939;SDS011;61094;51.154;13.570;2023-03-14T10:04:21;0.63;;;0.20;;
72939;SDS011;61094;51.154;13.570;2023-03-14T10:06:25;1.30;;;0.30;;
72939;SDS011;61094;51.154;13.570;2023-03-14T10:08:29;1.27;;;0.30;;
72939;SDS011;61094;51.154;13.570;2023-03-14T10:10:31;2.53;;;0.57;;
72939;SDS011;61094;51.154;13.570;2023-03-14T10:12:33;0.90;;;0.17;;
72939;SDS011;61094;51.154;13.570;2023-03-14T10:14:37;0.43;;;0.17;;
72939;SDS011;61094;51.154;13.570;2023-03-14T10:16:46;1.65;;;0.38;;
72939;SDS011;61094;51.154;13.570;2023-03-14T10:18:49;2.70;;;0.52;;
72939;SDS011;61094;51.154;13.570;2023-03-14T10:21:01;4.13;;;0.30;;
72939;SDS011;61094;51.154;13.570;2023-03-14T10:23:04;0.98;;;0.30;;
72939;SDS011;61094;51.154;13.570;2023-03-14T10:25:10;4.25;;;0.95;;
72939;SDS011;61094;51.154;13.570;2023-03-14T10:27:28;4.53;;;0.45;;
72939;SDS011;61094;51.154;13.570;2023-03-14T10:29:32;2.05;;;0.47;;
72939;SDS011;61094;51.154;13.570;2023-03-14T10:31:45;1.77;;;0.50;;
72939;SDS011;61094;51.154;13.570;2023-03-14T10:33:58;2.00;;;0.40;;
72939;SDS011;61094;51.154;13.570;2023-03-14T10:36:02;2.08;;;0.20;;
72939;SDS011;61094;51.154;13.570;2023-03-14T10:38:05;1.67;;;0.20;;
72939;SDS011;61094;51.154;13.570;2023-03-14T10:40:13;1.98;;;0.50;;
72939;SDS011;61094;51.154;13.570;2023-03-14T10:42:18;2.33;;;0.47;;
72939;SDS011;61094;51.154;13.570;2023-03-14T10:44:22;2.20;;;0.40;;
72939;SDS011;61094;51.154;13.570;2023-03-14T10:48:49;1.95;;;0.28;;
72939;SDS011;61094;51.154;13.570;2023-03-14T10:50:56;2.65;;;0.38;;
72939;SDS011;61094;51.154;13.570;2023-03-14T10:53:03;1.95;;;0.40;;
72939;SDS011;61094;51.154;13.570;2023-03-14T10:55:09;2.78;;;0.47;;
72939;SDS011;61094;51.154;13.570;2023-03-14T10:57:12;1.67;;;0.50;;
72939;SDS011;61094;51.154;13.570;2023-03-14T10:59:15;2.88;;;0.70;;
72939;SDS011;61094;51.154;13.570;2023-03-14T11:01:22;1.85;;;0.57;;
72939;SDS011;61094;51.154;13.570;2023-03-14T11:03:33;1.20;;;0.40;;
72939;SDS011;61094;51.154;13.570;2023-03-14T11:05:39;1.75;;;0.40;;
72939;SDS011;61094;51.154;13.570;2023-03-14T11:07:45;0.50;;;0.20;;
72939;SDS011;61094;51.154;13.570;2023-03-14T11:09:48;2.47;;;0.32;;
72939;SDS011;61094;51.154;13.570;2023-03-14T11:11:55;0.77;;;0.30;;
72939;SDS011;61094;51.154;13.570;2023-03-14T11:14:08;0.85;;;0.30;;
72939;SDS011;61094;51.154;13.570;2023-03-14T11:16:19;2.25;;;0.45;;
72939;SDS011;61094;51.154;13.570;2023-03-14T11:20:59;1.67;;;0.28;;
72939;SDS011;61094;51.154;13.570;2023-03-14T11:23:07;1.13;;;0.30;;
72939;SDS011;61094;51.154;13.570;2023-03-14T11:25:15;1.70;;;0.40;;
72939;SDS011;61094;51.154;13.570;2023-03-14T11:27:23;0.40;;;0.13;;
72939;SDS011;61094;51.154;13.570;2023-03-14T11:29:33;2.28;;;0.25;;
72939;SDS011;61094;51.154;13.570;2023-03-14T11:31:40;0.70;;;0.28;;
72939;SDS011;61094;51.154;13.570;2023-03-14T11:33:47;1.75;;;0.40;;
72939;SDS011;61094;51.154;13.570;2023-03-14T11:35:56;1.10;;;0.43;;
72939;SDS011;61094;51.154;13.570;2023-03-14T11:38:03;3.55;;;0.32;;
72939;SDS011;61094;51.154;13.570;2023-03-14T11:40:16;1.08;;;0.30;;
72939;SDS011;61094;51.154;13.570;2023-03-14T11:42:19;3.63;;;0.50;;
72939;SDS011;61094;51.154;13.570;2023-03-14T11:44:24;1.88;;;0.85;;
72939;SDS011;61094;51.154;13.570;2023-03-14T11:46:32;0.30;;;0.10;;
72939;SDS011;61094;51.154;13.570;2023-03-14T11:48:40;1.58;;;0.35;;
72939;SDS011;61094;51.154;13.570;2023-03-14T11:50:47;3.08;;;0.17;;
72939;SDS011;61094;51.154;13.570;2023-03-14T11:52:53;0.70;;;0.25;;
72939;SDS011;61094;51.154;13.570;2023-03-14T11:55:00;1.75;;;0.30;;
72939;SDS011;61094;51.154;13.570;2023-03-14T11:57:10;1.42;;;0.20;;
72939;SDS011;61094;51.154;13.570;2023-03-14T11:59:16;3.90;;;0.38;;
72939;SDS011;61094;51.154;13.570;2023-03-14T12:01:20;2.08;;;0.25;;
72939;SDS011;61094;51.154;13.570;2023-03-14T12:03:29;0.88;;;0.20;;
72939;SDS011;61094;51.154;13.570;2023-03-14T12:05:41;1.23;;;0.30;;
72939;SDS011;61094;51.154;13.570;2023-03-14T12:08:02;3.80;;;0.65;;
72939;SDS011;61094;51.154;13.570;2023-03-14T12:10:29;1.60;;;0.35;;
72939;SDS011;61094;51.154;13.570;2023-03-14T12:12:37;1.52;;;0.30;;
72939;SDS011;61094;51.154;13.570;2023-03-14T12:14:43;2.47;;;0.45;;
72939;SDS011;61094;51.154;13.570;2023-03-14T12:16:48;0.55;;;0.20;;
72939;SDS011;61094;51.154;13.570;2023-03-14T12:18:50;3.80;;;0.52;;
72939;SDS011;61094;51.154;13.570;2023-03-14T12:20:53;0.15;;;0.10;;
72939;SDS011;61094;51.154;13.570;2023-03-14T12:23:01;1.00;;;0.20;;
72939;SDS011;61094;51.154;13.570;2023-03-14T12:25:06;1.58;;;0.10;;
72939;SDS011;61094;51.154;13.570;2023-03-14T12:29:58;0.75;;;0.20;;
72939;SDS011;61094;51.154;13.570;2023-03-14T12:32:09;0.30;;;0.10;;
72939;SDS011;61094;51.154;13.570;2023-03-14T12:34:29;1.02;;;0.20;;
72939;SDS011;61094;51.154;13.570;2023-03-14T12:39:13;1.55;;;0.28;;
72939;SDS011;61094;51.154;13.570;2023-03-14T12:41:24;1.50;;;0.30;;
72939;SDS011;61094;51.154;13.570;2023-03-14T12:43:32;0.17;;;0.08;;
72939;SDS011;61094;51.154;13.570;2023-03-14T12:45:36;0.80;;;0.20;;
72939;SDS011;61094;51.154;13.570;2023-03-14T12:49:56;0.55;;;0.10;;
72939;SDS011;61094;51.154;13.570;2023-03-14T12:52:12;0.93;;;0.22;;
72939;SDS011;61094;51.154;13.570;2023-03-14T12:54:21;1.05;;;0.20;;
72939;SDS011;61094;51.154;13.570;2023-03-14T12:56:39;3.20;;;0.20;;
72939;SDS011;61094;51.154;13.570;2023-03-14T12:58:54;0.75;;;0.40;;
72939;SDS011;61094;51.154;13.570;2023-03-14T13:01:06;0.77;;;0.20;;
72939;SDS011;61094;51.154;13.570;2023-03-14T13:03:20;0.88;;;0.20;;
72939;SDS011;61094;51.154;13.570;2023-03-14T13:05:27;1.95;;;0.32;;
72939;SDS011;61094;51.154;13.570;2023-03-14T13:07:30;0.22;;;0.03;;